sensor_id;sensor_type;location;lat;lon;timestamp;P1;durP1;ratioP1;P2;durP2;ratioP2
11943;SDS011;6031;50.220;10.122;2023-07-30T00:00:36;3.03;;;2.53;;
11943;SDS011;6031;50.220;10.122;2023-07-30T00:03:01;2.40;;;2.30;;
11943;SDS011;6031;50.220;10.122;2023-07-30T00:05:27;2.73;;;2.53;;
11943;SDS011;6031;50.220;10.122;2023-07-30T00:07:53;2.97;;;2.30;;
11943;SDS011;6031;50.220;10.122;2023-07-30T00:10:19;2.07;;;1.97;;
11943;SDS011;6031;50.220;10.122;2023-07-30T00:12:45;2.50;;;2.30;;
11943;SDS011;6031;50.220;10.122;2023-07-30T00:15:10;2.50;;;2.30;;
11943;SDS011;6031;50.220;10.122;2023-07-30T00:17:37;2.53;;;2.33;;
11943;SDS011;6031;50.220;10.122;2023-07-30T00:20:03;3.23;;;2.40;;
11943;SDS011;6031;50.220;10.122;2023-07-30T00:22:30;4.30;;;2.57;;
11943;SDS011;6031;50.220;10.122;2023-07-30T00:24:55;3.13;;;2.67;;
11943;SDS011;6031;50.220;10.122;2023-07-30T00:27:21;2.87;;;2.67;;
11943;SDS011;6031;50.220;10.122;2023-07-30T00:29:46;2.60;;;2.40;;
11943;SDS011;6031;50.220;10.122;2023-07-30T00:32:12;2.10;;;2.00;;
11943;SDS011;6031;50.220;10.122;2023-07-30T00:34:40;3.87;;;2.17;;
11943;SDS011;6031;50.220;10.122;2023-07-30T00:37:06;3.13;;;2.53;;
11943;SDS011;6031;50.220;10.122;2023-07-30T00:39:32;2.70;;;2.20;;
11943;SDS011;6031;50.220;10.122;2023-07-30T00:41:57;3.63;;;2.30;;
11943;SDS011;6031;50.220;10.122;2023-07-30T00:44:23;2.80;;;2.03;;
11943;SDS011;6031;50.220;10.122;2023-07-30T00:46:48;2.13;;;2.03;;
11943;SDS011;6031;50.220;10.122;2023-07-30T00:49:14;1.83;;;1.73;;
11943;SDS011;6031;50.220;10.122;2023-07-30T00:51:40;2.50;;;2.33;;
11943;SDS011;6031;50.220;10.122;2023-07-30T00:54:07;2.47;;;2.27;;
11943;SDS011;6031;50.220;10.122;2023-07-30T00:56:32;3.63;;;2.07;;
11943;SDS011;6031;50.220;10.122;2023-07-30T00:58:58;2.30;;;2.10;;
11943;SDS011;6031;50.220;10.122;2023-07-30T01:01:24;2.13;;;2.00;;
11943;SDS011;6031;50.220;10.122;2023-07-30T01:03:49;2.27;;;2.07;;
11943;SDS011;6031;50.220;10.122;2023-07-30T01:06:15;2.00;;;1.90;;
11943;SDS011;6031;50.220;10.122;2023-07-30T01:08:41;2.50;;;2.10;;
11943;SDS011;6031;50.220;10.122;2023-07-30T01:11:06;2.20;;;2.10;;
11943;SDS011;6031;50.220;10.122;2023-07-30T01:13:33;3.27;;;2.17;;
11943;SDS011;6031;50.220;10.122;2023-07-30T01:16:00;3.60;;;2.57;;
11943;SDS011;6031;50.220;10.122;2023-07-30T01:18:26;2.27;;;2.17;;
11943;SDS011;6031;50.220;10.122;2023-07-30T01:20:57;2.33;;;2.23;;
11943;SDS011;6031;50.220;10.122;2023-07-30T01:23:23;2.57;;;2.20;;
11943;SDS011;6031;50.220;10.122;2023-07-30T01:25:50;5.00;;;2.13;;
11943;SDS011;6031;50.220;10.122;2023-07-30T01:28:25;2.47;;;2.27;;
11943;SDS011;6031;50.220;10.122;2023-07-30T01:30:52;2.80;;;2.40;;
11943;SDS011;6031;50.220;10.122;2023-07-30T01:33:19;2.43;;;1.97;;
11943;SDS011;6031;50.220;10.122;2023-07-30T01:35:45;2.00;;;1.90;;
11943;SDS011;6031;50.220;10.122;2023-07-30T01:38:11;2.47;;;2.13;;
11943;SDS011;6031;50.220;10.122;2023-07-30T01:40:37;3.70;;;2.27;;
11943;SDS011;6031;50.220;10.122;2023-07-30T01:43:03;1.93;;;1.83;;
11943;SDS011;6031;50.220;10.122;2023-07-30T01:45:29;2.50;;;2.30;;
11943;SDS011;6031;50.220;10.122;2023-07-30T01:47:54;2.87;;;2.07;;
11943;SDS011;6031;50.220;10.122;2023-07-30T01:50:20;2.50;;;2.30;;
11943;SDS011;6031;50.220;10.122;2023-07-30T01:52:45;1.83;;;1.73;;
11943;SDS011;6031;50.220;10.122;2023-07-30T01:55:11;6.87;;;2.20;;
11943;SDS011;6031;50.220;10.122;2023-07-30T01:57:36;3.17;;;2.10;;
11943;SDS011;6031;50.220;10.122;2023-07-30T02:00:02;2.50;;;2.30;;
11943;SDS011;6031;50.220;10.122;2023-07-30T02:02:28;2.40;;;1.87;;
11943;SDS011;6031;50.220;10.122;2023-07-30T02:04:53;3.53;;;2.30;;
11943;SDS011;6031;50.220;10.122;2023-07-30T02:07:19;2.20;;;2.00;;
11943;SDS011;6031;50.220;10.122;2023-07-30T02:09:44;1.97;;;1.87;;
11943;SDS011;6031;50.220;10.122;2023-07-30T02:12:10;2.93;;;2.23;;
11943;SDS011;6031;50.220;10.122;2023-07-30T02:14:36;2.63;;;1.67;;
11943;SDS011;6031;50.220;10.122;2023-07-30T02:17:01;4.30;;;2.10;;
11943;SDS011;6031;50.220;10.122;2023-07-30T02:19:27;3.50;;;1.77;;
11943;SDS011;6031;50.220;10.122;2023-07-30T02:21:53;2.00;;;1.90;;
11943;SDS011;6031;50.220;10.122;2023-07-30T02:24:18;2.63;;;1.93;;
11943;SDS011;6031;50.220;10.122;2023-07-30T02:26:44;3.67;;;2.30;;
11943;SDS011;6031;50.220;10.122;2023-07-30T02:29:09;2.30;;;1.83;;
11943;SDS011;6031;50.220;10.122;2023-07-30T02:31:35;1.70;;;1.60;;
11943;SDS011;6031;50.220;10.122;2023-07-30T02:34:00;3.40;;;2.30;;
11943;SDS011;6031;50.220;10.122;2023-07-30T02:36:26;2.90;;;2.10;;
11943;SDS011;6031;50.220;10.122;2023-07-30T02:38:51;5.70;;;2.20;;
11943;SDS011;6031;50.220;10.122;2023-07-30T02:41:17;2.30;;;2.10;;
11943;SDS011;6031;50.220;10.122;2023-07-30T02:43:42;4.10;;;2.30;;
11943;SDS011;6031;50.220;10.122;2023-07-30T02:49:17;2.23;;;2.00;;
11943;SDS011;6031;50.220;10.122;2023-07-30T02:51:43;2.47;;;2.00;;
11943;SDS011;6031;50.220;10.122;2023-07-30T02:54:13;5.27;;;2.40;;
11943;SDS011;6031;50.220;10.122;2023-07-30T02:56:39;2.27;;;2.07;;
11943;SDS011;6031;50.220;10.122;2023-07-30T02:59:04;4.37;;;2.20;;
11943;SDS011;6031;50.220;10.122;2023-07-30T03:01:30;2.73;;;2.30;;
11943;SDS011;6031;50.220;10.122;2023-07-30T03:03:55;2.93;;;2.00;;
11943;SDS011;6031;50.220;10.122;2023-07-30T03:06:21;2.33;;;2.17;;
11943;SDS011;6031;50.220;10.122;2023-07-30T03:08:47;4.10;;;2.33;;
11943;SDS011;6031;50.220;10.122;2023-07-30T03:11:12;2.87;;;2.20;;
11943;SDS011;6031;50.220;10.122;2023-07-30T03:13:38;2.17;;;1.80;;
11943;SDS011;6031;50.220;10.122;2023-07-30T03:16:04;2.40;;;2.20;;
11943;SDS011;6031;50.220;10.122;2023-07-30T03:18:29;2.87;;;2.07;;
11943;SDS011;6031;50.220;10.122;2023-07-30T03:21:01;4.37;;;2.30;;
11943;SDS011;6031;50.220;10.122;2023-07-30T03:23:28;2.67;;;2.07;;
11943;SDS011;6031;50.220;10.122;2023-07-30T03:25:53;2.50;;;2.40;;
11943;SDS011;6031;50.220;10.122;2023-07-30T03:28:19;4.13;;;2.13;;
11943;SDS011;6031;50.220;10.122;2023-07-30T03:30:44;7.40;;;3.63;;
11943;SDS011;6031;50.220;10.122;2023-07-30T03:33:10;2.53;;;2.33;;
11943;SDS011;6031;50.220;10.122;2023-07-30T03:35:35;2.37;;;2.17;;
11943;SDS011;6031;50.220;10.122;2023-07-30T03:38:01;2.27;;;2.17;;
11943;SDS011;6031;50.220;10.122;2023-07-30T03:40:26;2.03;;;1.93;;
11943;SDS011;6031;50.220;10.122;2023-07-30T03:42:53;4.23;;;2.20;;
11943;SDS011;6031;50.220;10.122;2023-07-30T03:45:19;2.60;;;2.40;;
11943;SDS011;6031;50.220;10.122;2023-07-30T03:47:44;2.60;;;2.40;;
11943;SDS011;6031;50.220;10.122;2023-07-30T03:50:10;3.77;;;2.73;;
11943;SDS011;6031;50.220;10.122;2023-07-30T03:52:35;4.77;;;2.50;;
11943;SDS011;6031;50.220;10.122;2023-07-30T03:55:01;3.73;;;2.60;;
11943;SDS011;6031;50.220;10.122;2023-07-30T03:57:26;4.97;;;2.03;;
11943;SDS011;6031;50.220;10.122;2023-07-30T03:59:52;2.57;;;2.37;;
11943;SDS011;6031;50.220;10.122;2023-07-30T04:02:17;2.53;;;2.40;;
11943;SDS011;6031;50.220;10.122;2023-07-30T04:04:43;3.00;;;2.80;;
11943;SDS011;6031;50.220;10.122;2023-07-30T04:07:09;2.83;;;2.43;;
11943;SDS011;6031;50.220;10.122;2023-07-30T04:09:35;3.47;;;2.10;;
11943;SDS011;6031;50.220;10.122;2023-07-30T04:12:01;3.40;;;2.43;;
11943;SDS011;6031;50.220;10.122;2023-07-30T04:14:27;2.63;;;2.43;;
11943;SDS011;6031;50.220;10.122;2023-07-30T04:16:52;5.03;;;2.83;;
11943;SDS011;6031;50.220;10.122;2023-07-30T04:19:18;4.13;;;3.13;;
11943;SDS011;6031;50.220;10.122;2023-07-30T04:21:43;5.37;;;2.80;;
11943;SDS011;6031;50.220;10.122;2023-07-30T04:24:09;3.70;;;2.70;;
11943;SDS011;6031;50.220;10.122;2023-07-30T04:26:34;4.30;;;2.73;;
11943;SDS011;6031;50.220;10.122;2023-07-30T04:29:00;3.50;;;3.20;;
11943;SDS011;6031;50.220;10.122;2023-07-30T04:31:25;5.30;;;4.10;;
11943;SDS011;6031;50.220;10.122;2023-07-30T04:33:51;4.63;;;4.23;;
11943;SDS011;6031;50.220;10.122;2023-07-30T04:36:16;5.03;;;3.83;;
11943;SDS011;6031;50.220;10.122;2023-07-30T04:38:42;5.87;;;4.40;;
11943;SDS011;6031;50.220;10.122;2023-07-30T04:41:07;5.40;;;3.90;;
11943;SDS011;6031;50.220;10.122;2023-07-30T04:43:33;5.23;;;3.83;;
11943;SDS011;6031;50.220;10.122;2023-07-30T04:45:58;4.33;;;3.60;;
11943;SDS011;6031;50.220;10.122;2023-07-30T04:48:24;4.97;;;3.90;;
11943;SDS011;6031;50.220;10.122;2023-07-30T04:50:49;7.53;;;4.30;;
11943;SDS011;6031;50.220;10.122;2023-07-30T04:53:15;3.73;;;3.27;;
11943;SDS011;6031;50.220;10.122;2023-07-30T04:55:42;3.90;;;3.50;;
11943;SDS011;6031;50.220;10.122;2023-07-30T04:58:07;4.53;;;3.03;;
11943;SDS011;6031;50.220;10.122;2023-07-30T05:00:32;3.77;;;3.33;;
11943;SDS011;6031;50.220;10.122;2023-07-30T05:02:58;3.93;;;3.40;;
11943;SDS011;6031;50.220;10.122;2023-07-30T05:05:24;3.37;;;3.07;;
11943;SDS011;6031;50.220;10.122;2023-07-30T05:07:49;3.87;;;3.50;;
11943;SDS011;6031;50.220;10.122;2023-07-30T05:10:15;3.67;;;3.37;;
11943;SDS011;6031;50.220;10.122;2023-07-30T05:12:41;3.60;;;3.30;;
11943;SDS011;6031;50.220;10.122;2023-07-30T05:15:07;3.90;;;3.60;;
11943;SDS011;6031;50.220;10.122;2023-07-30T05:17:32;5.93;;;3.40;;
11943;SDS011;6031;50.220;10.122;2023-07-30T05:19:58;4.93;;;3.30;;
11943;SDS011;6031;50.220;10.122;2023-07-30T05:22:24;3.87;;;3.43;;
11943;SDS011;6031;50.220;10.122;2023-07-30T05:24:50;5.23;;;3.60;;
11943;SDS011;6031;50.220;10.122;2023-07-30T05:27:16;6.73;;;3.93;;
11943;SDS011;6031;50.220;10.122;2023-07-30T05:29:41;4.03;;;3.73;;
11943;SDS011;6031;50.220;10.122;2023-07-30T05:32:07;3.80;;;3.50;;
11943;SDS011;6031;50.220;10.122;2023-07-30T05:34:33;3.80;;;3.40;;
11943;SDS011;6031;50.220;10.122;2023-07-30T05:36:59;3.87;;;3.53;;
11943;SDS011;6031;50.220;10.122;2023-07-30T05:39:24;3.40;;;3.10;;
11943;SDS011;6031;50.220;10.122;2023-07-30T05:41:50;4.27;;;3.90;;
11943;SDS011;6031;50.220;10.122;2023-07-30T05:44:15;4.70;;;3.30;;
11943;SDS011;6031;50.220;10.122;2023-07-30T05:46:41;3.70;;;3.40;;
11943;SDS011;6031;50.220;10.122;2023-07-30T05:49:06;4.00;;;3.67;;
11943;SDS011;6031;50.220;10.122;2023-07-30T05:51:32;3.10;;;2.80;;
11943;SDS011;6031;50.220;10.122;2023-07-30T05:53:57;4.87;;;3.27;;
11943;SDS011;6031;50.220;10.122;2023-07-30T05:56:23;4.47;;;3.30;;
11943;SDS011;6031;50.220;10.122;2023-07-30T05:58:48;4.30;;;3.40;;
11943;SDS011;6031;50.220;10.122;2023-07-30T06:01:14;3.57;;;3.20;;
11943;SDS011;6031;50.220;10.122;2023-07-30T06:03:39;6.60;;;2.90;;
11943;SDS011;6031;50.220;10.122;2023-07-30T06:06:05;3.33;;;3.03;;
11943;SDS011;6031;50.220;10.122;2023-07-30T06:08:30;3.63;;;3.33;;
11943;SDS011;6031;50.220;10.122;2023-07-30T06:11:00;3.27;;;2.60;;
11943;SDS011;6031;50.220;10.122;2023-07-30T06:13:28;2.70;;;2.50;;
11943;SDS011;6031;50.220;10.122;2023-07-30T06:15:53;5.65;;;2.60;;
11943;SDS011;6031;50.220;10.122;2023-07-30T06:18:20;2.40;;;2.20;;
11943;SDS011;6031;50.220;10.122;2023-07-30T06:20:45;2.85;;;2.42;;
11943;SDS011;6031;50.220;10.122;2023-07-30T06:23:11;2.95;;;2.65;;
11943;SDS011;6031;50.220;10.122;2023-07-30T06:25:36;3.28;;;2.25;;
11943;SDS011;6031;50.220;10.122;2023-07-30T06:28:02;2.67;;;2.47;;
11943;SDS011;6031;50.220;10.122;2023-07-30T06:30:29;2.35;;;2.22;;
11943;SDS011;6031;50.220;10.122;2023-07-30T06:32:54;2.40;;;2.20;;
11943;SDS011;6031;50.220;10.122;2023-07-30T06:35:20;2.95;;;2.38;;
11943;SDS011;6031;50.220;10.122;2023-07-30T06:37:46;2.05;;;1.95;;
11943;SDS011;6031;50.220;10.122;2023-07-30T06:40:11;4.15;;;2.00;;
11943;SDS011;6031;50.220;10.122;2023-07-30T06:42:37;1.80;;;1.70;;
11943;SDS011;6031;50.220;10.122;2023-07-30T06:45:02;2.00;;;1.90;;
11943;SDS011;6031;50.220;10.122;2023-07-30T06:47:28;2.75;;;2.20;;
11943;SDS011;6031;50.220;10.122;2023-07-30T06:49:54;3.10;;;2.33;;
11943;SDS011;6031;50.220;10.122;2023-07-30T06:52:19;2.83;;;2.58;;
11943;SDS011;6031;50.220;10.122;2023-07-30T06:54:45;3.30;;;2.17;;
11943;SDS011;6031;50.220;10.122;2023-07-30T06:57:11;2.80;;;2.05;;
11943;SDS011;6031;50.220;10.122;2023-07-30T06:59:36;3.77;;;2.30;;
11943;SDS011;6031;50.220;10.122;2023-07-30T07:02:02;4.83;;;2.50;;
11943;SDS011;6031;50.220;10.122;2023-07-30T07:04:27;4.07;;;2.40;;
11943;SDS011;6031;50.220;10.122;2023-07-30T07:06:53;2.57;;;2.13;;
11943;SDS011;6031;50.220;10.122;2023-07-30T07:09:18;3.27;;;2.20;;
11943;SDS011;6031;50.220;10.122;2023-07-30T07:11:44;1.77;;;1.67;;
11943;SDS011;6031;50.220;10.122;2023-07-30T07:14:09;2.50;;;2.07;;
11943;SDS011;6031;50.220;10.122;2023-07-30T07:16:35;2.50;;;2.30;;
11943;SDS011;6031;50.220;10.122;2023-07-30T07:19:01;2.13;;;2.03;;
11943;SDS011;6031;50.220;10.122;2023-07-30T07:21:26;2.40;;;2.10;;
11943;SDS011;6031;50.220;10.122;2023-07-30T07:23:52;2.63;;;2.17;;
11943;SDS011;6031;50.220;10.122;2023-07-30T07:26:17;2.40;;;2.20;;
11943;SDS011;6031;50.220;10.122;2023-07-30T07:28:43;2.80;;;2.23;;
11943;SDS011;6031;50.220;10.122;2023-07-30T07:31:08;2.00;;;1.90;;
11943;SDS011;6031;50.220;10.122;2023-07-30T07:33:34;2.72;;;1.95;;
11943;SDS011;6031;50.220;10.122;2023-07-30T07:36:03;2.10;;;1.90;;
11943;SDS011;6031;50.220;10.122;2023-07-30T07:38:30;2.25;;;2.05;;
11943;SDS011;6031;50.220;10.122;2023-07-30T07:40:56;1.90;;;1.80;;
11943;SDS011;6031;50.220;10.122;2023-07-30T07:43:22;2.58;;;1.98;;
11943;SDS011;6031;50.220;10.122;2023-07-30T07:45:47;1.73;;;1.63;;
11943;SDS011;6031;50.220;10.122;2023-07-30T07:48:13;2.25;;;1.75;;
11943;SDS011;6031;50.220;10.122;2023-07-30T07:50:38;2.10;;;1.80;;
11943;SDS011;6031;50.220;10.122;2023-07-30T07:53:04;2.53;;;1.88;;
11943;SDS011;6031;50.220;10.122;2023-07-30T07:55:29;1.98;;;1.80;;
11943;SDS011;6031;50.220;10.122;2023-07-30T07:57:55;1.98;;;1.88;;
11943;SDS011;6031;50.220;10.122;2023-07-30T08:00:20;1.90;;;1.65;;
11943;SDS011;6031;50.220;10.122;2023-07-30T08:02:46;1.83;;;1.65;;
11943;SDS011;6031;50.220;10.122;2023-07-30T08:05:13;1.73;;;1.50;;
11943;SDS011;6031;50.220;10.122;2023-07-30T08:07:38;2.00;;;1.90;;
11943;SDS011;6031;50.220;10.122;2023-07-30T08:10:04;2.75;;;1.77;;
11943;SDS011;6031;50.220;10.122;2023-07-30T08:12:33;1.88;;;1.50;;
11943;SDS011;6031;50.220;10.122;2023-07-30T08:14:58;2.60;;;2.10;;
11943;SDS011;6031;50.220;10.122;2023-07-30T08:17:24;3.58;;;1.52;;
11943;SDS011;6031;50.220;10.122;2023-07-30T08:19:50;1.83;;;1.73;;
11943;SDS011;6031;50.220;10.122;2023-07-30T08:22:15;2.20;;;1.80;;
11943;SDS011;6031;50.220;10.122;2023-07-30T08:24:41;1.85;;;1.55;;
11943;SDS011;6031;50.220;10.122;2023-07-30T08:27:06;1.50;;;1.40;;
11943;SDS011;6031;50.220;10.122;2023-07-30T08:29:32;1.70;;;1.60;;
11943;SDS011;6031;50.220;10.122;2023-07-30T08:31:57;2.30;;;1.60;;
11943;SDS011;6031;50.220;10.122;2023-07-30T08:34:23;1.70;;;1.60;;
11943;SDS011;6031;50.220;10.122;2023-07-30T08:36:48;2.17;;;1.40;;
11943;SDS011;6031;50.220;10.122;2023-07-30T08:39:14;3.38;;;1.83;;
11943;SDS011;6031;50.220;10.122;2023-07-30T08:41:40;1.70;;;1.60;;
11943;SDS011;6031;50.220;10.122;2023-07-30T08:44:05;1.40;;;1.27;;
11943;SDS011;6031;50.220;10.122;2023-07-30T08:46:31;3.15;;;1.20;;
11943;SDS011;6031;50.220;10.122;2023-07-30T08:48:57;1.48;;;1.38;;
11943;SDS011;6031;50.220;10.122;2023-07-30T08:51:22;1.60;;;1.48;;
11943;SDS011;6031;50.220;10.122;2023-07-30T08:53:51;5.38;;;1.50;;
11943;SDS011;6031;50.220;10.122;2023-07-30T08:56:16;1.23;;;1.17;;
11943;SDS011;6031;50.220;10.122;2023-07-30T08:58:42;1.52;;;1.17;;
11943;SDS011;6031;50.220;10.122;2023-07-30T09:01:09;2.75;;;1.33;;
11943;SDS011;6031;50.220;10.122;2023-07-30T09:03:37;1.48;;;1.30;;
11943;SDS011;6031;50.220;10.122;2023-07-30T09:06:04;1.83;;;1.70;;
11943;SDS011;6031;50.220;10.122;2023-07-30T09:08:30;2.90;;;1.27;;
11943;SDS011;6031;50.220;10.122;2023-07-30T09:10:57;1.80;;;1.70;;
11943;SDS011;6031;50.220;10.122;2023-07-30T09:13:34;2.35;;;1.88;;
11943;SDS011;6031;50.220;10.122;2023-07-30T09:16:11;1.92;;;1.45;;
11943;SDS011;6031;50.220;10.122;2023-07-30T09:18:41;2.25;;;1.38;;
11943;SDS011;6031;50.220;10.122;2023-07-30T09:21:10;3.03;;;1.77;;
11943;SDS011;6031;50.220;10.122;2023-07-30T09:23:44;2.22;;;1.35;;
11943;SDS011;6031;50.220;10.122;2023-07-30T09:26:11;1.50;;;1.40;;
11943;SDS011;6031;50.220;10.122;2023-07-30T09:28:37;2.90;;;1.58;;
11943;SDS011;6031;50.220;10.122;2023-07-30T09:31:03;3.63;;;1.23;;
11943;SDS011;6031;50.220;10.122;2023-07-30T09:33:31;1.42;;;1.33;;
11943;SDS011;6031;50.220;10.122;2023-07-30T09:35:57;1.23;;;1.13;;
11943;SDS011;6031;50.220;10.122;2023-07-30T09:38:26;2.90;;;1.50;;
11943;SDS011;6031;50.220;10.122;2023-07-30T09:40:58;3.25;;;1.60;;
11943;SDS011;6031;50.220;10.122;2023-07-30T09:43:28;3.42;;;1.92;;
11943;SDS011;6031;50.220;10.122;2023-07-30T09:45:55;1.70;;;1.60;;
11943;SDS011;6031;50.220;10.122;2023-07-30T09:48:27;2.72;;;1.40;;
11943;SDS011;6031;50.220;10.122;2023-07-30T09:50:57;1.42;;;1.33;;
11943;SDS011;6031;50.220;10.122;2023-07-30T09:53:24;5.10;;;1.30;;
11943;SDS011;6031;50.220;10.122;2023-07-30T09:55:50;2.05;;;1.30;;
11943;SDS011;6031;50.220;10.122;2023-07-30T09:58:15;1.13;;;0.85;;
11943;SDS011;6031;50.220;10.122;2023-07-30T10:00:42;2.03;;;1.23;;
11943;SDS011;6031;50.220;10.122;2023-07-30T10:03:09;0.88;;;0.88;;
11943;SDS011;6031;50.220;10.122;2023-07-30T10:05:37;1.25;;;1.15;;
11943;SDS011;6031;50.220;10.122;2023-07-30T10:08:05;1.33;;;1.23;;
11943;SDS011;6031;50.220;10.122;2023-07-30T10:10:42;1.97;;;1.30;;
11943;SDS011;6031;50.220;10.122;2023-07-30T10:13:09;4.13;;;1.33;;
11943;SDS011;6031;50.220;10.122;2023-07-30T10:15:37;1.40;;;1.30;;
11943;SDS011;6031;50.220;10.122;2023-07-30T10:18:03;1.47;;;1.37;;
11943;SDS011;6031;50.220;10.122;2023-07-30T10:20:30;2.73;;;1.90;;
11943;SDS011;6031;50.220;10.122;2023-07-30T10:22:57;2.03;;;1.83;;
11943;SDS011;6031;50.220;10.122;2023-07-30T10:25:30;2.17;;;2.07;;
11943;SDS011;6031;50.220;10.122;2023-07-30T10:28:31;2.40;;;2.20;;
11943;SDS011;6031;50.220;10.122;2023-07-30T10:30:59;4.80;;;2.47;;
11943;SDS011;6031;50.220;10.122;2023-07-30T10:34:11;2.80;;;1.90;;
11943;SDS011;6031;50.220;10.122;2023-07-30T10:36:18;2.20;;;2.00;;
11943;SDS011;6031;50.220;10.122;2023-07-30T10:38:55;2.60;;;2.40;;
11943;SDS011;6031;50.220;10.122;2023-07-30T10:41:21;3.40;;;2.30;;
11943;SDS011;6031;50.220;10.122;2023-07-30T10:43:48;2.50;;;2.23;;
11943;SDS011;6031;50.220;10.122;2023-07-30T10:46:16;2.47;;;2.27;;
11943;SDS011;6031;50.220;10.122;2023-07-30T10:48:44;2.97;;;2.43;;
11943;SDS011;6031;50.220;10.122;2023-07-30T10:51:17;3.97;;;3.23;;
11943;SDS011;6031;50.220;10.122;2023-07-30T10:53:44;3.73;;;3.10;;
11943;SDS011;6031;50.220;10.122;2023-07-30T10:56:11;2.77;;;2.43;;
11943;SDS011;6031;50.220;10.122;2023-07-30T10:58:38;2.43;;;2.20;;
11943;SDS011;6031;50.220;10.122;2023-07-30T11:01:04;1.47;;;1.03;;
11943;SDS011;6031;50.220;10.122;2023-07-30T11:03:31;2.27;;;1.40;;
11943;SDS011;6031;50.220;10.122;2023-07-30T11:05:57;1.47;;;1.37;;
11943;SDS011;6031;50.220;10.122;2023-07-30T11:10:58;2.53;;;2.33;;
11943;SDS011;6031;50.220;10.122;2023-07-30T11:13:24;1.23;;;1.13;;
11943;SDS011;6031;50.220;10.122;2023-07-30T11:15:50;1.75;;;1.33;;
11943;SDS011;6031;50.220;10.122;2023-07-30T11:18:16;1.75;;;1.65;;
11943;SDS011;6031;50.220;10.122;2023-07-30T11:20:41;3.10;;;1.60;;
11943;SDS011;6031;50.220;10.122;2023-07-30T11:23:19;1.65;;;1.55;;
11943;SDS011;6031;50.220;10.122;2023-07-30T11:25:47;1.27;;;1.20;;
11943;SDS011;6031;50.220;10.122;2023-07-30T11:28:28;1.42;;;1.33;;
11943;SDS011;6031;50.220;10.122;2023-07-30T11:30:56;1.40;;;1.30;;
11943;SDS011;6031;50.220;10.122;2023-07-30T11:33:43;2.08;;;1.60;;
11943;SDS011;6031;50.220;10.122;2023-07-30T11:36:11;2.45;;;1.50;;
11943;SDS011;6031;50.220;10.122;2023-07-30T11:38:39;1.77;;;1.67;;
11943;SDS011;6031;50.220;10.122;2023-07-30T11:41:05;3.03;;;1.70;;
11943;SDS011;6031;50.220;10.122;2023-07-30T11:43:35;7.60;;;2.03;;
11943;SDS011;6031;50.220;10.122;2023-07-30T11:46:10;2.27;;;1.90;;
11943;SDS011;6031;50.220;10.122;2023-07-30T11:48:38;2.60;;;2.40;;
11943;SDS011;6031;50.220;10.122;2023-07-30T11:51:05;5.97;;;1.93;;
11943;SDS011;6031;50.220;10.122;2023-07-30T11:53:44;3.10;;;2.50;;
11943;SDS011;6031;50.220;10.122;2023-07-30T11:56:15;4.90;;;2.37;;
11943;SDS011;6031;50.220;10.122;2023-07-30T11:58:52;2.43;;;2.27;;
11943;SDS011;6031;50.220;10.122;2023-07-30T12:01:22;2.30;;;1.90;;
11943;SDS011;6031;50.220;10.122;2023-07-30T12:03:49;5.43;;;1.90;;
11943;SDS011;6031;50.220;10.122;2023-07-30T12:06:14;2.47;;;1.43;;
11943;SDS011;6031;50.220;10.122;2023-07-30T12:08:40;2.83;;;1.60;;
11943;SDS011;6031;50.220;10.122;2023-07-30T12:11:06;0.90;;;0.90;;
11943;SDS011;6031;50.220;10.122;2023-07-30T12:13:33;1.50;;;0.77;;
11943;SDS011;6031;50.220;10.122;2023-07-30T12:15:59;1.37;;;1.10;;
11943;SDS011;6031;50.220;10.122;2023-07-30T12:18:25;1.27;;;1.17;;
11943;SDS011;6031;50.220;10.122;2023-07-30T12:20:52;0.63;;;0.63;;
11943;SDS011;6031;50.220;10.122;2023-07-30T12:23:19;0.53;;;0.53;;
11943;SDS011;6031;50.220;10.122;2023-07-30T12:25:45;1.37;;;0.80;;
11943;SDS011;6031;50.220;10.122;2023-07-30T12:28:11;1.43;;;0.80;;
11943;SDS011;6031;50.220;10.122;2023-07-30T12:30:37;3.33;;;0.80;;
11943;SDS011;6031;50.220;10.122;2023-07-30T12:33:03;0.63;;;0.63;;
11943;SDS011;6031;50.220;10.122;2023-07-30T12:35:29;1.37;;;0.73;;
11943;SDS011;6031;50.220;10.122;2023-07-30T12:37:55;0.77;;;0.50;;
11943;SDS011;6031;50.220;10.122;2023-07-30T12:40:21;3.43;;;0.67;;
11943;SDS011;6031;50.220;10.122;2023-07-30T12:42:46;1.57;;;0.87;;
11943;SDS011;6031;50.220;10.122;2023-07-30T12:45:12;2.03;;;0.80;;
11943;SDS011;6031;50.220;10.122;2023-07-30T12:47:37;2.33;;;1.17;;
11943;SDS011;6031;50.220;10.122;2023-07-30T12:50:03;2.97;;;0.70;;
11943;SDS011;6031;50.220;10.122;2023-07-30T12:52:30;1.23;;;0.70;;
11943;SDS011;6031;50.220;10.122;2023-07-30T12:54:57;1.20;;;1.10;;
11943;SDS011;6031;50.220;10.122;2023-07-30T12:57:22;0.97;;;0.80;;
11943;SDS011;6031;50.220;10.122;2023-07-30T12:59:48;1.85;;;0.80;;
11943;SDS011;6031;50.220;10.122;2023-07-30T13:02:13;2.30;;;1.00;;
11943;SDS011;6031;50.220;10.122;2023-07-30T13:04:39;1.20;;;0.82;;
11943;SDS011;6031;50.220;10.122;2023-07-30T13:07:04;2.40;;;1.00;;
11943;SDS011;6031;50.220;10.122;2023-07-30T13:09:30;2.03;;;1.00;;
11943;SDS011;6031;50.220;10.122;2023-07-30T13:11:56;2.23;;;0.67;;
11943;SDS011;6031;50.220;10.122;2023-07-30T13:14:22;0.77;;;0.77;;
11943;SDS011;6031;50.220;10.122;2023-07-30T13:16:47;3.73;;;1.00;;
11943;SDS011;6031;50.220;10.122;2023-07-30T13:19:13;2.70;;;1.27;;
11943;SDS011;6031;50.220;10.122;2023-07-30T13:21:38;1.10;;;0.80;;
11943;SDS011;6031;50.220;10.122;2023-07-30T13:24:04;0.90;;;0.90;;
11943;SDS011;6031;50.220;10.122;2023-07-30T13:26:29;1.67;;;1.00;;
11943;SDS011;6031;50.220;10.122;2023-07-30T13:28:55;1.20;;;1.10;;
11943;SDS011;6031;50.220;10.122;2023-07-30T13:31:20;1.87;;;0.90;;
11943;SDS011;6031;50.220;10.122;2023-07-30T13:33:46;3.87;;;1.20;;
11943;SDS011;6031;50.220;10.122;2023-07-30T13:36:13;0.90;;;0.87;;
11943;SDS011;6031;50.220;10.122;2023-07-30T13:38:39;1.33;;;1.13;;
11943;SDS011;6031;50.220;10.122;2023-07-30T13:41:05;2.00;;;1.47;;
11943;SDS011;6031;50.220;10.122;2023-07-30T13:43:32;2.30;;;1.00;;
11943;SDS011;6031;50.220;10.122;2023-07-30T13:45:57;1.90;;;1.00;;
11943;SDS011;6031;50.220;10.122;2023-07-30T13:48:26;2.30;;;0.77;;
11943;SDS011;6031;50.220;10.122;2023-07-30T13:50:52;2.30;;;1.20;;
11943;SDS011;6031;50.220;10.122;2023-07-30T13:53:18;1.63;;;0.73;;
11943;SDS011;6031;50.220;10.122;2023-07-30T13:55:44;2.27;;;1.00;;
11943;SDS011;6031;50.220;10.122;2023-07-30T13:58:10;1.53;;;0.83;;
11943;SDS011;6031;50.220;10.122;2023-07-30T14:00:36;1.30;;;1.20;;
11943;SDS011;6031;50.220;10.122;2023-07-30T14:03:02;2.30;;;0.97;;
11943;SDS011;6031;50.220;10.122;2023-07-30T14:05:27;8.17;;;1.63;;
11943;SDS011;6031;50.220;10.122;2023-07-30T14:07:53;4.30;;;1.53;;
11943;SDS011;6031;50.220;10.122;2023-07-30T14:10:21;1.43;;;1.20;;
11943;SDS011;6031;50.220;10.122;2023-07-30T14:12:47;3.80;;;1.30;;
11943;SDS011;6031;50.220;10.122;2023-07-30T14:15:13;3.07;;;1.10;;
11943;SDS011;6031;50.220;10.122;2023-07-30T14:17:39;3.27;;;1.40;;
11943;SDS011;6031;50.220;10.122;2023-07-30T14:20:05;4.80;;;1.27;;
11943;SDS011;6031;50.220;10.122;2023-07-30T14:22:32;2.13;;;1.17;;
11943;SDS011;6031;50.220;10.122;2023-07-30T14:24:59;3.07;;;1.43;;
11943;SDS011;6031;50.220;10.122;2023-07-30T14:27:24;1.73;;;1.10;;
11943;SDS011;6031;50.220;10.122;2023-07-30T14:29:50;1.93;;;1.40;;
11943;SDS011;6031;50.220;10.122;2023-07-30T14:32:16;1.40;;;1.30;;
11943;SDS011;6031;50.220;10.122;2023-07-30T14:34:43;3.60;;;1.20;;
11943;SDS011;6031;50.220;10.122;2023-07-30T14:37:08;4.13;;;1.37;;
11943;SDS011;6031;50.220;10.122;2023-07-30T14:39:34;1.90;;;0.93;;
11943;SDS011;6031;50.220;10.122;2023-07-30T14:41:59;1.90;;;1.37;;
11943;SDS011;6031;50.220;10.122;2023-07-30T14:44:25;1.60;;;1.33;;
11943;SDS011;6031;50.220;10.122;2023-07-30T14:46:50;3.70;;;1.20;;
11943;SDS011;6031;50.220;10.122;2023-07-30T14:49:16;2.40;;;1.60;;